createdAt,value
2017-10-19T00:01:59.290Z,16.67
2017-10-19T00:04:27.015Z,21.47
2017-10-19T00:06:54.593Z,17.37
2017-10-19T00:09:22.553Z,14.47
2017-10-19T00:11:50.320Z,16.40
2017-10-19T00:14:17.928Z,17.37
2017-10-19T00:16:45.585Z,20.30
2017-10-19T00:19:15.863Z,17.30
2017-10-19T00:21:43.556Z,16.67
2017-10-19T00:24:11.296Z,15.30
2017-10-19T00:26:40.744Z,15.50
2017-10-19T00:29:09.660Z,15.50
2017-10-19T00:31:38.988Z,16.50
2017-10-19T00:34:08.786Z,17.60
2017-10-19T00:36:38.659Z,17.00
2017-10-19T00:39:08.155Z,17.73
2017-10-19T00:41:36.099Z,21.13
2017-10-19T00:44:06.084Z,16.17
2017-10-19T00:46:33.752Z,19.63
2017-10-19T00:49:01.779Z,18.17
2017-10-19T00:51:30.325Z,17.57
2017-10-19T00:53:58.056Z,19.33
2017-10-19T00:56:25.775Z,20.67
2017-10-19T00:58:53.500Z,21.67
2017-10-19T01:01:21.902Z,15.93
2017-10-19T01:03:50.314Z,14.33
2017-10-19T01:06:18.045Z,15.43
2017-10-19T01:08:46.673Z,14.17
2017-10-19T01:11:14.540Z,19.77
2017-10-19T01:13:42.700Z,14.63
2017-10-19T01:16:11.556Z,17.67
2017-10-19T01:18:39.645Z,14.60
2017-10-19T01:21:09.366Z,17.93
2017-10-19T01:23:37.900Z,16.57
2017-10-19T01:26:06.985Z,16.37
2017-10-19T01:28:34.765Z,15.93
2017-10-19T01:31:02.567Z,16.47
2017-10-19T01:33:30.289Z,15.07
2017-10-19T01:36:00.051Z,16.97
2017-10-19T01:38:28.061Z,14.53
2017-10-19T01:40:55.787Z,17.03
2017-10-19T01:43:23.511Z,17.47
2017-10-19T01:45:51.277Z,16.03
2017-10-19T01:48:19.049Z,17.67
2017-10-19T01:50:47.425Z,17.50
2017-10-19T01:53:15.157Z,17.37
2017-10-19T01:55:42.872Z,16.27
2017-10-19T01:58:11.463Z,19.33
2017-10-19T02:00:40.460Z,18.80
2017-10-19T02:03:08.085Z,21.33
2017-10-19T02:05:36.512Z,18.50
2017-10-19T02:08:04.136Z,17.23
2017-10-19T02:10:32.469Z,16.70
2017-10-19T02:13:00.150Z,18.70
2017-10-19T02:15:27.764Z,15.77
2017-10-19T02:17:55.280Z,16.47
2017-10-19T02:20:22.862Z,15.67
2017-10-19T02:22:50.475Z,13.50
2017-10-19T02:25:20.101Z,14.60
2017-10-19T02:27:47.791Z,15.20
2017-10-19T02:30:15.421Z,16.90
2017-10-19T02:32:43.030Z,16.23
2017-10-19T02:35:11.771Z,15.13
2017-10-19T02:37:40.329Z,14.60
2017-10-19T02:40:08.011Z,15.50
2017-10-19T02:42:35.739Z,20.57
2017-10-19T02:45:03.341Z,14.17
2017-10-19T02:47:31.780Z,16.43
2017-10-19T02:50:00.571Z,18.10
2017-10-19T02:52:28.323Z,15.50
2017-10-19T02:54:58.142Z,13.47
2017-10-19T02:57:25.930Z,14.23
2017-10-19T02:59:53.596Z,18.13
2017-10-19T03:02:21.456Z,18.37
2017-10-19T03:04:50.565Z,16.87
2017-10-19T03:07:19.171Z,16.43
2017-10-19T03:09:47.403Z,17.03
2017-10-19T03:12:18.618Z,16.10
2017-10-19T03:14:47.181Z,16.73
2017-10-19T03:17:15.847Z,15.73
2017-10-19T03:19:43.607Z,14.13
2017-10-19T03:22:11.209Z,15.00
2017-10-19T03:24:38.991Z,14.90
2017-10-19T03:27:06.642Z,14.13
2017-10-19T03:29:35.200Z,15.97
2017-10-19T03:32:04.848Z,16.77
2017-10-19T03:34:33.551Z,17.70
2017-10-19T03:37:02.471Z,15.80
2017-10-19T03:39:30.488Z,17.13
2017-10-19T03:41:58.049Z,18.40
2017-10-19T03:44:25.585Z,17.97
2017-10-19T03:46:53.320Z,16.87
2017-10-19T03:49:21.058Z,15.97
2017-10-19T03:51:49.592Z,18.20
2017-10-19T03:54:18.249Z,20.27
2017-10-19T03:56:46.410Z,16.03
2017-10-19T03:59:14.471Z,14.70
2017-10-19T04:01:42.173Z,16.10
2017-10-19T04:04:10.047Z,16.50
2017-10-19T04:06:38.262Z,16.00
2017-10-19T04:09:06.988Z,25.40
2017-10-19T04:11:34.599Z,20.10
2017-10-19T04:14:03.017Z,19.33
2017-10-19T04:16:31.154Z,18.50
2017-10-19T04:18:59.023Z,22.87
2017-10-19T04:21:27.590Z,25.60
2017-10-19T04:23:56.916Z,24.17
2017-10-19T04:26:24.592Z,23.27
2017-10-19T04:28:52.689Z,27.07
2017-10-19T04:31:21.588Z,28.67
2017-10-19T04:33:50.205Z,26.07
2017-10-19T04:36:19.191Z,27.20
2017-10-19T04:38:46.848Z,25.87
2017-10-19T04:41:14.395Z,23.67
2017-10-19T04:43:41.937Z,22.10
2017-10-19T04:46:10.173Z,22.43
2017-10-19T04:48:37.772Z,23.20
2017-10-19T04:51:05.311Z,25.60
2017-10-19T04:53:32.900Z,21.80
2017-10-19T04:56:00.502Z,26.17
2017-10-19T04:58:28.101Z,21.77
2017-10-19T05:00:56.286Z,24.40
2017-10-19T05:03:23.950Z,27.30
2017-10-19T05:05:52.550Z,29.40
2017-10-19T05:08:20.061Z,24.97
2017-10-19T05:10:49.400Z,23.30
2017-10-19T05:13:17.157Z,20.07
2017-10-19T05:15:45.550Z,27.93
2017-10-19T05:18:13.137Z,22.20
2017-10-19T05:20:40.719Z,21.20
2017-10-19T05:23:08.326Z,25.33
2017-10-19T05:25:35.930Z,21.10
2017-10-19T05:28:03.620Z,23.07
2017-10-19T05:30:31.321Z,26.17
2017-10-19T05:32:59.979Z,21.27
2017-10-19T05:35:27.639Z,22.20
2017-10-19T05:37:55.132Z,29.10
2017-10-19T05:40:22.632Z,19.43
2017-10-19T05:42:50.245Z,28.93
2017-10-19T05:45:17.949Z,21.90
2017-10-19T05:47:45.420Z,19.53
2017-10-19T05:50:12.916Z,28.17
2017-10-19T05:52:40.442Z,28.73
2017-10-19T05:55:08.029Z,24.17
2017-10-19T05:57:35.565Z,31.13
2017-10-19T06:00:03.506Z,22.33
2017-10-19T06:02:33.085Z,25.80
2017-10-19T06:05:00.778Z,21.50
2017-10-19T06:07:29.274Z,18.60
2017-10-19T06:09:56.894Z,20.67
2017-10-19T06:12:24.431Z,25.30
2017-10-19T06:14:52.010Z,22.50
2017-10-19T06:17:31.727Z,18.90
2017-10-19T06:19:59.257Z,19.40
2017-10-19T06:22:26.844Z,20.93
2017-10-19T06:24:54.357Z,24.73
2017-10-19T06:27:21.912Z,20.00
2017-10-19T06:29:49.429Z,20.77
2017-10-19T06:32:17.004Z,23.60
2017-10-19T06:34:44.546Z,23.97
2017-10-19T06:37:12.099Z,27.10
2017-10-19T06:39:39.774Z,17.40
2017-10-19T06:42:07.338Z,25.37
2017-10-19T06:44:34.899Z,19.97
2017-10-19T06:47:03.809Z,20.60
2017-10-19T06:49:31.368Z,19.70
2017-10-19T06:51:58.859Z,23.63
2017-10-19T06:54:26.401Z,19.37
2017-10-19T06:56:53.920Z,25.47
2017-10-19T06:59:21.435Z,29.23
2017-10-19T07:01:48.986Z,23.13
2017-10-19T07:04:16.509Z,20.57
2017-10-19T07:06:44.043Z,23.07
2017-10-19T07:09:11.580Z,25.00
2017-10-19T07:11:39.124Z,19.67
2017-10-19T07:14:06.733Z,22.00
2017-10-19T07:16:34.391Z,24.37
2017-10-19T07:19:01.953Z,18.70
2017-10-19T07:21:29.524Z,23.80
2017-10-19T07:23:57.148Z,18.03
2017-10-19T07:26:24.721Z,18.10
2017-10-19T07:28:52.341Z,27.80
2017-10-19T07:31:19.833Z,20.70
2017-10-19T07:33:47.474Z,20.00
2017-10-19T07:36:16.428Z,20.83
2017-10-19T07:38:44.511Z,20.73
2017-10-19T07:41:13.399Z,26.20
2017-10-19T07:43:41.339Z,19.87
2017-10-19T07:46:09.251Z,23.13
2017-10-19T07:48:36.969Z,20.13
2017-10-19T07:51:04.623Z,20.50
2017-10-19T07:53:33.126Z,30.43
2017-10-19T07:56:00.846Z,22.10
2017-10-19T08:01:03.876Z,24.57
2017-10-19T08:03:31.495Z,22.00
2017-10-19T08:05:59.227Z,21.73
2017-10-19T08:08:26.966Z,21.77
2017-10-19T08:11:03.251Z,23.60
2017-10-19T08:13:32.219Z,28.63
2017-10-19T08:16:02.055Z,25.90
2017-10-19T08:18:29.805Z,26.33
2017-10-19T08:20:58.558Z,27.90
2017-10-19T08:23:26.273Z,27.83
2017-10-19T08:25:55.130Z,24.73
2017-10-19T08:28:23.054Z,22.60
2017-10-19T08:30:51.857Z,25.07
2017-10-19T08:36:00.418Z,22.17
2017-10-19T08:38:28.777Z,23.53
2017-10-19T08:43:53.522Z,22.87
2017-10-19T08:59:53.100Z,29.63
2017-10-19T09:02:20.685Z,29.80
2017-10-19T09:04:49.226Z,26.50
2017-10-19T09:07:16.859Z,28.63
2017-10-19T09:09:44.540Z,25.90
2017-10-19T09:12:12.423Z,26.03
2017-10-19T09:14:41.837Z,27.70
2017-10-19T09:17:09.745Z,22.27
2017-10-19T09:19:37.389Z,27.60
2017-10-19T09:22:04.920Z,32.33
2017-10-19T09:24:32.560Z,33.23
2017-10-19T09:27:00.336Z,29.17
2017-10-19T09:29:28.152Z,29.47
2017-10-19T09:31:55.781Z,26.70
2017-10-19T09:34:23.305Z,23.77
2017-10-19T09:36:50.982Z,24.43
2017-10-19T09:39:18.560Z,25.70
2017-10-19T09:41:46.104Z,24.47
2017-10-19T09:44:15.155Z,28.47
2017-10-19T09:46:43.491Z,28.93
2017-10-19T09:49:11.001Z,25.27
2017-10-19T09:51:38.568Z,24.23
2017-10-19T09:54:06.143Z,24.70
2017-10-19T09:56:33.703Z,27.00
2017-10-19T09:59:01.277Z,28.20
2017-10-19T10:01:28.883Z,25.50
2017-10-19T10:03:56.452Z,26.37
2017-10-19T10:06:24.006Z,26.77
2017-10-19T10:08:51.610Z,31.90
2017-10-19T10:11:19.131Z,25.37
2017-10-19T10:13:46.760Z,22.80
2017-10-19T10:16:14.277Z,27.80
2017-10-19T10:18:41.855Z,29.13
2017-10-19T10:21:09.390Z,26.37
2017-10-19T10:23:36.909Z,25.67
2017-10-19T10:26:04.511Z,29.77
2017-10-19T10:28:32.064Z,24.77
2017-10-19T10:30:59.659Z,25.10
2017-10-19T10:33:27.212Z,31.77
2017-10-19T10:35:54.773Z,25.87
2017-10-19T10:38:22.350Z,22.30
2017-10-19T10:40:49.846Z,23.50
2017-10-19T10:43:17.567Z,23.37
2017-10-19T10:45:45.252Z,28.23
2017-10-19T10:48:12.855Z,25.83
2017-10-19T10:50:40.540Z,24.40
2017-10-19T10:53:08.415Z,24.37
2017-10-19T10:55:46.043Z,25.60
2017-10-19T10:58:13.587Z,28.00
2017-10-19T11:00:41.145Z,22.93
2017-10-19T11:03:08.817Z,32.23
2017-10-19T11:05:36.415Z,30.37
2017-10-19T11:08:03.942Z,66.83
2017-10-19T11:10:31.484Z,37.43
2017-10-19T11:12:59.099Z,29.30
2017-10-19T11:15:26.765Z,30.90
2017-10-19T11:17:54.318Z,25.73
2017-10-19T11:20:22.122Z,20.53
2017-10-19T11:22:50.158Z,20.70
2017-10-19T11:25:17.659Z,17.57
2017-10-19T11:27:46.532Z,19.60
2017-10-19T11:30:14.293Z,18.50
2017-10-19T11:32:42.109Z,18.13
2017-10-19T11:35:09.836Z,21.43
2017-10-19T11:37:37.423Z,30.63
2017-10-19T11:40:05.064Z,20.77
2017-10-19T11:42:32.676Z,21.00
2017-10-19T11:45:01.472Z,17.60
2017-10-19T11:47:29.794Z,22.50
2017-10-19T11:49:57.581Z,19.93
2017-10-19T11:52:25.878Z,17.17
2017-10-19T11:54:53.548Z,17.83
2017-10-19T11:57:21.323Z,23.07
2017-10-19T11:59:49.746Z,19.13
2017-10-19T12:02:22.655Z,16.60
2017-10-19T12:04:50.556Z,17.33
2017-10-19T12:07:18.312Z,15.30
2017-10-19T12:09:47.209Z,16.60
2017-10-19T12:12:15.017Z,16.27
2017-10-19T12:14:43.771Z,16.90
2017-10-19T12:17:11.489Z,13.47
2017-10-19T12:19:39.175Z,15.33
2017-10-19T12:22:07.257Z,19.43
2017-10-19T12:24:37.419Z,12.97
2017-10-19T12:27:05.484Z,18.50
2017-10-19T12:29:33.684Z,14.10
2017-10-19T12:32:01.275Z,15.97
2017-10-19T12:34:29.756Z,14.80
2017-10-19T12:37:06.474Z,12.40
2017-10-19T12:39:34.550Z,12.30
2017-10-19T12:42:02.389Z,14.43
2017-10-19T12:44:30.107Z,12.90
2017-10-19T12:46:57.828Z,15.90
2017-10-19T12:49:25.930Z,15.43
2017-10-19T12:51:53.827Z,13.50
2017-10-19T12:54:21.841Z,12.60
2017-10-19T12:56:49.642Z,14.57
2017-10-19T12:59:17.412Z,11.17
2017-10-19T13:04:19.081Z,15.13
2017-10-19T13:06:46.700Z,12.10
2017-10-19T13:09:14.380Z,12.60
2017-10-19T13:11:42.672Z,13.03
2017-10-19T13:14:10.419Z,14.10
2017-10-19T13:16:38.057Z,11.00
2017-10-19T13:19:05.815Z,12.17
2017-10-19T13:21:33.600Z,10.77
2017-10-19T13:24:01.962Z,11.27
2017-10-19T13:26:30.230Z,11.63
2017-10-19T13:28:59.105Z,9.50
2017-10-19T13:31:26.955Z,10.80
2017-10-19T13:33:54.654Z,18.13
2017-10-19T13:36:22.422Z,11.73
2017-10-19T13:38:50.735Z,15.90
2017-10-19T13:41:19.210Z,12.43
2017-10-19T13:43:47.247Z,13.20
2017-10-19T13:46:14.917Z,14.20
2017-10-19T13:48:45.175Z,12.70
2017-10-19T13:51:12.737Z,12.20
2017-10-19T13:53:41.015Z,11.37
2017-10-19T13:56:08.638Z,15.30
2017-10-19T13:58:36.281Z,11.30
2017-10-19T14:01:04.115Z,13.20
2017-10-19T14:03:32.323Z,13.40
2017-10-19T14:05:59.937Z,14.53
2017-10-19T14:08:27.538Z,10.53
2017-10-19T14:10:55.108Z,14.27
2017-10-19T14:13:23.395Z,11.90
2017-10-19T14:15:51.147Z,14.63
2017-10-19T14:18:18.808Z,9.20
2017-10-19T14:20:46.453Z,13.77
2017-10-19T14:23:14.081Z,14.40
2017-10-19T14:25:41.594Z,14.00
2017-10-19T14:28:10.371Z,11.17
2017-10-19T14:30:37.944Z,11.53
2017-10-19T14:33:06.102Z,10.90
2017-10-19T14:35:34.612Z,11.30
2017-10-19T14:38:02.240Z,12.60
2017-10-19T14:40:29.944Z,15.53
2017-10-19T14:42:57.676Z,13.90
2017-10-19T14:45:25.428Z,14.83
2017-10-19T14:47:53.773Z,10.63
2017-10-19T14:50:21.485Z,12.20
2017-10-19T14:52:49.150Z,12.43
2017-10-19T14:55:16.915Z,16.37
2017-10-19T14:57:44.521Z,14.63
2017-10-19T15:00:12.929Z,21.57
2017-10-19T15:02:40.588Z,21.47
2017-10-19T15:05:08.170Z,22.10
2017-10-19T15:07:35.786Z,18.20
2017-10-19T15:10:03.323Z,18.23
2017-10-19T15:12:30.853Z,17.50
2017-10-19T15:14:58.424Z,19.67
2017-10-19T15:17:26.066Z,17.87
2017-10-19T15:19:53.649Z,15.33
2017-10-19T15:22:21.253Z,23.33
2017-10-19T15:24:48.842Z,13.20
2017-10-19T15:27:16.400Z,16.53
2017-10-19T15:29:44.477Z,14.33
2017-10-19T15:32:12.019Z,16.77
2017-10-19T15:34:39.639Z,13.67
2017-10-19T15:37:07.313Z,12.37
2017-10-19T15:39:34.898Z,18.23
2017-10-19T15:42:02.463Z,44.13
2017-10-19T15:44:30.042Z,41.53
2017-10-19T15:46:57.640Z,34.37
2017-10-19T15:49:25.243Z,15.00
2017-10-19T15:51:52.844Z,19.63
2017-10-19T15:54:21.351Z,42.93
2017-10-19T15:56:48.968Z,20.43
2017-10-19T15:59:16.844Z,11.47
2017-10-19T16:01:44.510Z,13.77
2017-10-19T16:04:12.282Z,20.57
2017-10-19T16:06:39.777Z,17.70
2017-10-19T16:09:09.076Z,19.30
2017-10-19T16:11:37.599Z,20.43
2017-10-19T16:14:05.313Z,23.73
2017-10-19T16:16:32.979Z,33.50
2017-10-19T16:19:01.463Z,31.60
2017-10-19T16:21:29.146Z,19.33
2017-10-19T16:23:57.853Z,28.20
2017-10-19T16:26:25.403Z,21.97
2017-10-19T16:28:56.092Z,30.77
2017-10-19T16:31:23.732Z,25.67
2017-10-19T16:33:51.267Z,26.47
2017-10-19T16:36:18.804Z,35.13
2017-10-19T16:38:46.526Z,22.70
2017-10-19T16:41:14.145Z,43.50
2017-10-19T16:43:41.955Z,32.43
2017-10-19T16:46:09.532Z,30.03
2017-10-19T16:48:38.084Z,28.93
2017-10-19T16:51:06.765Z,22.60
2017-10-19T16:53:34.605Z,28.13
2017-10-19T16:56:02.237Z,25.13
2017-10-19T16:58:29.900Z,27.67
2017-10-19T17:00:57.523Z,22.90
2017-10-19T17:03:28.061Z,21.40
2017-10-19T17:05:55.686Z,21.73
2017-10-19T17:08:23.377Z,21.83
2017-10-19T17:10:51.194Z,23.37
2017-10-19T17:13:20.179Z,27.40
2017-10-19T17:15:48.020Z,24.23
2017-10-19T17:18:16.898Z,25.43
2017-10-19T17:20:44.755Z,23.47
2017-10-19T17:23:14.653Z,22.10
2017-10-19T17:25:42.528Z,23.30
2017-10-19T17:28:11.990Z,25.27
2017-10-19T17:30:39.962Z,21.13
2017-10-19T17:33:08.082Z,20.20
2017-10-19T17:35:36.405Z,31.73
2017-10-19T17:38:04.084Z,23.03
2017-10-19T17:40:32.991Z,20.83
2017-10-19T17:43:02.718Z,26.63
2017-10-19T17:45:33.016Z,25.10
2017-10-19T17:48:01.686Z,24.53
2017-10-19T17:50:31.393Z,28.67
2017-10-19T17:52:59.679Z,26.33
2017-10-19T17:55:27.521Z,24.90
2017-10-19T17:57:56.365Z,30.50
2017-10-19T18:00:24.252Z,27.80
2017-10-19T18:02:53.124Z,23.40
2017-10-19T18:05:20.908Z,32.10
2017-10-19T18:07:50.745Z,24.00
2017-10-19T18:10:20.121Z,29.83
2017-10-19T18:12:49.966Z,25.43
2017-10-19T18:15:18.818Z,21.93
2017-10-19T18:17:47.025Z,26.97
2017-10-19T18:20:14.922Z,28.80
2017-10-19T18:22:42.783Z,24.10
2017-10-19T18:25:11.546Z,32.10
2017-10-19T18:27:40.511Z,28.07
2017-10-19T18:30:08.855Z,25.13
2017-10-19T18:32:36.534Z,22.63
2017-10-19T18:35:04.455Z,28.17
2017-10-19T18:37:32.221Z,31.00
2017-10-19T18:40:00.537Z,24.63
2017-10-19T18:42:28.628Z,26.23
2017-10-19T18:44:56.583Z,24.40
2017-10-19T18:49:58.358Z,24.80
2017-10-19T18:52:26.396Z,26.93
2017-10-19T18:54:54.329Z,21.57
2017-10-19T18:57:22.298Z,24.57
2017-10-19T18:59:50.255Z,25.90
2017-10-19T19:02:18.168Z,25.13
2017-10-19T19:04:46.117Z,27.43
2017-10-19T19:07:14.115Z,27.90
2017-10-19T19:09:42.106Z,28.77
2017-10-19T19:12:13.246Z,28.97
2017-10-19T19:14:41.235Z,29.33
2017-10-19T19:17:10.205Z,35.43
2017-10-19T19:19:38.082Z,33.47
2017-10-19T19:22:07.591Z,29.90
2017-10-19T19:24:35.764Z,27.13
2017-10-19T19:27:04.558Z,30.83
2017-10-19T19:29:32.509Z,27.33
2017-10-19T19:32:01.573Z,29.23
2017-10-19T19:34:29.481Z,26.30
2017-10-19T19:36:57.470Z,27.17
2017-10-19T19:39:25.601Z,28.67
2017-10-19T19:41:54.431Z,28.37
2017-10-19T19:44:23.413Z,27.50
2017-10-19T19:46:51.469Z,23.20
2017-10-19T19:49:21.044Z,24.50
2017-10-19T19:51:49.598Z,25.57
2017-10-19T19:54:19.619Z,25.57
2017-10-19T19:56:47.908Z,24.97
2017-10-19T19:59:15.957Z,24.87
2017-10-19T20:01:44.079Z,22.23
2017-10-19T20:07:15.059Z,22.93
2017-10-19T20:09:43.522Z,23.17
2017-10-19T20:12:12.004Z,17.73
2017-10-19T20:14:40.097Z,22.47
2017-10-19T20:17:09.114Z,18.73
2017-10-19T20:19:38.619Z,22.20
2017-10-19T20:22:06.968Z,26.77
2017-10-19T20:24:36.067Z,22.13
2017-10-19T20:27:05.868Z,25.60
2017-10-19T20:29:33.839Z,19.97
2017-10-19T20:32:04.095Z,25.63
2017-10-19T20:34:33.424Z,25.87
2017-10-19T20:37:02.985Z,20.77
2017-10-19T20:39:31.733Z,18.57
2017-10-19T20:42:03.612Z,26.30
2017-10-19T20:44:32.960Z,34.17
2017-10-19T20:47:01.659Z,28.10
2017-10-19T20:49:30.457Z,24.87
2017-10-19T20:52:00.859Z,17.80
2017-10-19T20:54:28.492Z,28.27
2017-10-19T20:56:58.730Z,24.57
2017-10-19T20:59:27.706Z,23.43
2017-10-19T21:01:55.617Z,19.30
2017-10-19T21:04:23.507Z,20.43
2017-10-19T21:06:51.165Z,21.10
2017-10-19T21:09:19.701Z,19.73
2017-10-19T21:11:48.296Z,22.00
2017-10-19T21:14:17.009Z,20.40
2017-10-19T21:16:44.605Z,24.03
2017-10-19T21:19:13.405Z,18.87
2017-10-19T21:21:41.143Z,19.30
2017-10-19T21:24:09.804Z,23.30
2017-10-19T21:26:37.358Z,18.87
2017-10-19T21:29:05.755Z,29.63
2017-10-19T21:31:34.934Z,22.40
2017-10-19T21:34:03.439Z,18.33
2017-10-19T21:36:32.701Z,29.43
2017-10-19T21:39:02.098Z,17.37
2017-10-19T21:41:31.537Z,21.20
2017-10-19T21:43:59.879Z,18.63
2017-10-19T21:46:28.952Z,21.30
2017-10-19T21:48:56.886Z,22.83
2017-10-19T21:51:24.553Z,21.97
2017-10-19T21:53:52.204Z,20.00
2017-10-19T21:56:20.692Z,28.33
2017-10-19T21:58:48.440Z,22.87
2017-10-19T22:01:17.034Z,20.07
2017-10-19T22:03:45.714Z,21.50
2017-10-19T22:06:14.377Z,24.33
2017-10-19T22:08:42.331Z,21.27
2017-10-19T22:11:10.068Z,18.27
2017-10-19T22:13:37.733Z,18.30
2017-10-19T22:16:05.994Z,22.40
2017-10-19T22:18:33.699Z,21.37
2017-10-19T22:21:01.559Z,24.27
2017-10-19T22:23:29.388Z,20.87
2017-10-19T22:25:57.949Z,24.37
2017-10-19T22:28:28.230Z,22.60
2017-10-19T22:30:56.053Z,21.30
2017-10-19T22:33:23.982Z,22.10
2017-10-19T22:35:52.078Z,23.53
2017-10-19T22:38:19.652Z,22.73
2017-10-19T22:40:50.271Z,22.73
2017-10-19T22:43:17.925Z,21.40
2017-10-19T22:45:46.966Z,26.63
2017-10-19T22:48:14.538Z,27.47
2017-10-19T22:50:42.919Z,20.40
2017-10-19T22:53:11.319Z,22.00
2017-10-19T22:55:39.212Z,18.77
2017-10-19T22:58:06.725Z,20.63
2017-10-19T23:00:34.430Z,20.93
2017-10-19T23:03:01.947Z,21.13
2017-10-19T23:05:30.398Z,25.40
2017-10-19T23:07:58.881Z,22.93
2017-10-19T23:12:59.784Z,24.70
2017-10-19T23:15:27.463Z,18.63
2017-10-19T23:17:55.205Z,19.70
2017-10-19T23:20:22.892Z,16.83
2017-10-19T23:22:51.107Z,22.77
2017-10-19T23:25:18.799Z,17.80
2017-10-19T23:27:46.328Z,18.00
2017-10-19T23:30:15.574Z,18.40
2017-10-19T23:32:46.159Z,23.10
2017-10-19T23:35:13.867Z,23.13
2017-10-19T23:37:43.533Z,23.60
2017-10-19T23:40:12.275Z,21.93
2017-10-19T23:42:40.107Z,19.50
2017-10-19T23:45:07.802Z,20.27
2017-10-19T23:47:36.353Z,24.80
2017-10-19T23:50:03.952Z,19.83
2017-10-19T23:52:32.433Z,21.20
2017-10-19T23:55:00.111Z,17.23
2017-10-19T23:57:27.803Z,16.87
2017-10-19T23:59:55.442Z,16.90
